createdAt,value
2018-07-13T00:00:49.249Z,17.10
2018-07-13T00:03:18.003Z,17.10
2018-07-13T00:05:46.593Z,17.10
2018-07-13T00:10:44.421Z,17.00
2018-07-13T00:13:13.244Z,17.00
2018-07-13T00:15:53.111Z,16.90
2018-07-13T00:18:21.868Z,16.90
2018-07-13T00:20:50.497Z,16.90
2018-07-13T00:23:19.513Z,16.80
2018-07-13T00:25:48.266Z,16.80
2018-07-13T00:28:16.925Z,16.80
2018-07-13T00:30:46.668Z,16.80
2018-07-13T00:33:15.379Z,16.80
2018-07-13T00:35:44.385Z,16.70
2018-07-13T00:38:13.056Z,16.60
2018-07-13T00:40:41.717Z,16.60
2018-07-13T00:43:10.364Z,16.60
2018-07-13T00:45:39.023Z,16.60
2018-07-13T00:48:07.698Z,16.50
2018-07-13T00:50:36.361Z,16.50
2018-07-13T00:53:05.194Z,16.50
2018-07-13T00:55:33.878Z,16.50
2018-07-13T00:58:02.660Z,16.40
2018-07-13T01:00:32.680Z,16.40
2018-07-13T01:03:02.933Z,16.30
2018-07-13T01:05:31.898Z,16.30
2018-07-13T01:08:00.585Z,16.20
2018-07-13T01:10:29.313Z,16.20
2018-07-13T01:12:57.947Z,16.10
2018-07-13T01:15:26.661Z,16.20
2018-07-13T01:17:55.308Z,16.10
2018-07-13T01:20:24.012Z,16.10
2018-07-13T01:22:52.672Z,16.10
2018-07-13T01:27:49.958Z,16.10
2018-07-13T01:30:18.650Z,16.00
2018-07-13T01:32:47.336Z,16.00
2018-07-13T01:35:16.014Z,16.00
2018-07-13T01:37:44.802Z,16.00
2018-07-13T01:40:13.472Z,16.00
2018-07-13T01:42:42.220Z,16.00
2018-07-13T01:45:10.891Z,16.00
2018-07-13T01:47:39.582Z,15.90
2018-07-13T01:50:08.254Z,15.90
2018-07-13T01:52:36.901Z,15.90
2018-07-13T01:55:05.783Z,15.90
2018-07-13T01:57:34.512Z,15.80
2018-07-13T02:00:03.470Z,15.80
2018-07-13T02:02:32.261Z,15.70
2018-07-13T02:07:29.256Z,15.60
2018-07-13T02:09:57.907Z,15.60
2018-07-13T02:12:26.547Z,15.60
2018-07-13T02:14:55.394Z,15.60
2018-07-13T02:17:24.295Z,15.60
2018-07-13T02:19:52.938Z,15.60
2018-07-13T02:22:22.324Z,15.60
2018-07-13T02:24:50.913Z,15.60
2018-07-13T02:27:19.791Z,15.60
2018-07-13T02:29:48.842Z,15.50
2018-07-13T02:32:17.561Z,15.50
2018-07-13T02:34:46.217Z,15.50
2018-07-13T02:37:14.911Z,15.50
2018-07-13T02:39:43.549Z,15.40
2018-07-13T02:42:12.205Z,15.40
2018-07-13T02:44:40.852Z,15.30
2018-07-13T02:47:09.590Z,15.10
2018-07-13T02:49:38.249Z,15.20
2018-07-13T02:52:06.961Z,15.20
2018-07-13T02:54:35.670Z,15.10
2018-07-13T02:57:04.395Z,15.20
2018-07-13T02:59:32.986Z,15.20
2018-07-13T03:02:01.776Z,15.20
2018-07-13T03:04:30.459Z,15.20
2018-07-13T03:06:59.458Z,15.20
2018-07-13T03:09:28.164Z,15.30
2018-07-13T03:11:56.880Z,15.20
2018-07-13T03:14:25.722Z,15.20
2018-07-13T03:16:54.416Z,15.20
2018-07-13T03:19:23.167Z,15.30
2018-07-13T03:21:52.136Z,15.30
2018-07-13T03:24:20.843Z,15.40
2018-07-13T03:26:49.821Z,15.40
2018-07-13T03:29:18.628Z,15.40
2018-07-13T03:31:47.275Z,15.50
2018-07-13T03:34:15.938Z,15.50
2018-07-13T03:36:44.582Z,15.40
2018-07-13T03:39:13.235Z,15.40
2018-07-13T03:41:41.945Z,15.40
2018-07-13T03:44:10.666Z,15.40
2018-07-13T03:46:39.516Z,15.30
2018-07-13T03:49:08.188Z,15.20
2018-07-13T03:51:36.802Z,15.30
2018-07-13T03:54:05.902Z,15.30
2018-07-13T03:56:34.614Z,15.30
2018-07-13T03:59:03.611Z,15.40
2018-07-13T04:01:32.246Z,15.30
2018-07-13T04:04:00.914Z,15.30
2018-07-13T04:06:29.605Z,15.40
2018-07-13T04:08:58.268Z,15.40
2018-07-13T04:11:26.986Z,15.40
2018-07-13T04:13:55.624Z,15.40
2018-07-13T04:16:24.295Z,15.50
2018-07-13T04:18:52.970Z,15.50
2018-07-13T04:21:21.692Z,15.50
2018-07-13T04:23:50.400Z,15.60
2018-07-13T04:26:19.105Z,15.70
2018-07-13T04:28:48.158Z,15.80
2018-07-13T04:31:16.908Z,15.80
2018-07-13T04:33:45.768Z,15.90
2018-07-13T04:36:14.625Z,15.90
2018-07-13T04:38:43.488Z,16.00
2018-07-13T04:41:12.342Z,16.00
2018-07-13T04:43:41.119Z,16.10
2018-07-13T04:46:09.897Z,16.10
2018-07-13T04:48:38.729Z,16.10
2018-07-13T04:51:08.003Z,16.10
2018-07-13T04:53:36.899Z,16.20
2018-07-13T04:56:06.243Z,16.10
2018-07-13T04:58:35.020Z,16.10
2018-07-13T05:01:03.818Z,16.00
2018-07-13T05:03:32.756Z,16.10
2018-07-13T05:06:01.461Z,16.10
2018-07-13T05:08:30.344Z,16.10
2018-07-13T05:10:59.033Z,16.30
2018-07-13T05:13:27.717Z,16.40
2018-07-13T05:15:56.438Z,16.40
2018-07-13T05:23:21.974Z,16.20
2018-07-13T05:25:50.719Z,16.10
2018-07-13T05:28:19.619Z,16.10
2018-07-13T05:30:48.459Z,16.00
2018-07-13T05:33:17.197Z,15.90
2018-07-13T05:35:46.004Z,15.90
2018-07-13T05:38:14.754Z,15.90
2018-07-13T05:40:43.490Z,15.90
2018-07-13T05:43:12.414Z,15.90
2018-07-13T05:45:41.174Z,15.80
2018-07-13T05:48:09.980Z,15.70
2018-07-13T05:50:38.766Z,15.50
2018-07-13T05:53:07.614Z,15.50
2018-07-13T05:55:36.399Z,15.60
2018-07-13T05:58:05.208Z,15.70
2018-07-13T06:00:33.991Z,15.80
2018-07-13T06:03:02.709Z,15.80
2018-07-13T06:05:31.994Z,15.80
2018-07-13T06:08:00.752Z,15.70
2018-07-13T06:10:29.646Z,15.70
2018-07-13T06:12:58.386Z,15.70
2018-07-13T06:15:27.318Z,15.60
2018-07-13T06:17:56.117Z,15.40
2018-07-13T06:20:24.876Z,15.50
2018-07-13T06:22:53.666Z,15.70
2018-07-13T06:25:22.325Z,15.90
2018-07-13T06:27:50.990Z,15.90
2018-07-13T06:30:19.740Z,15.90
2018-07-13T06:32:48.289Z,15.90
2018-07-13T06:35:16.896Z,15.90
2018-07-13T06:37:45.742Z,15.80
2018-07-13T06:40:14.628Z,15.80
2018-07-13T06:42:43.373Z,15.90
2018-07-13T06:45:12.104Z,15.90
2018-07-13T06:50:09.255Z,16.00
2018-07-13T06:52:37.927Z,16.10
2018-07-13T06:55:06.663Z,16.20
2018-07-13T07:01:12.435Z,16.30
2018-07-13T07:04:49.696Z,16.30
2018-07-13T07:07:22.623Z,16.30
2018-07-13T07:09:58.346Z,16.40
2018-07-13T07:12:51.795Z,16.50
2018-07-13T07:15:21.060Z,16.50
2018-07-13T07:17:49.797Z,16.60
2018-07-13T07:20:18.513Z,16.60
2018-07-13T07:22:47.839Z,16.60
2018-07-13T07:25:16.687Z,16.70
2018-07-13T07:27:45.802Z,16.60
2018-07-13T07:30:14.925Z,16.60
2018-07-13T07:32:44.305Z,16.60
2018-07-13T07:35:13.020Z,16.60
2018-07-13T07:37:41.886Z,16.70
2018-07-13T07:40:10.682Z,16.90
2018-07-13T07:42:39.405Z,17.00
2018-07-13T07:45:08.135Z,17.10
2018-07-13T07:47:36.911Z,17.30
2018-07-13T07:50:05.623Z,17.50
2018-07-13T07:52:34.281Z,17.60
2018-07-13T07:57:31.428Z,17.70
2018-07-13T08:00:00.124Z,17.80
2018-07-13T08:02:28.824Z,17.60
2018-07-13T08:04:57.529Z,17.50
2018-07-13T08:07:26.426Z,17.70
2018-07-13T08:09:55.189Z,18.00
2018-07-13T08:12:23.842Z,18.20
2018-07-13T08:14:52.662Z,18.10
2018-07-13T08:17:21.350Z,18.10
2018-07-13T08:19:50.103Z,18.20
2018-07-13T08:22:37.903Z,18.20
2018-07-13T08:25:08.569Z,18.20
2018-07-13T08:27:40.127Z,18.20
2018-07-13T08:30:42.000Z,18.10
2018-07-13T08:33:10.689Z,18.10
2018-07-13T08:35:39.322Z,18.30
2018-07-13T08:38:08.217Z,18.40
2018-07-13T08:40:36.873Z,18.40
2018-07-13T08:43:05.997Z,18.40
2018-07-13T08:45:34.744Z,18.30
2018-07-13T08:50:32.339Z,18.30
2018-07-13T08:53:01.131Z,18.50
2018-07-13T08:55:30.451Z,18.70
2018-07-13T08:57:59.531Z,19.00
2018-07-13T09:00:28.260Z,19.20
2018-07-13T09:02:56.954Z,19.30
2018-07-13T09:05:25.704Z,19.20
2018-07-13T09:07:54.470Z,19.50
2018-07-13T09:10:23.257Z,19.70
2018-07-13T09:12:51.954Z,19.60
2018-07-13T09:15:20.680Z,19.60
2018-07-13T09:17:49.382Z,19.80
2018-07-13T09:20:18.195Z,19.70
2018-07-13T09:22:46.955Z,19.80
2018-07-13T09:25:15.721Z,19.90
2018-07-13T09:27:44.369Z,20.10
2018-07-13T09:32:41.712Z,20.50
2018-07-13T09:35:10.552Z,20.60
2018-07-13T09:37:39.281Z,20.70
2018-07-13T09:40:08.086Z,20.70
2018-07-13T09:42:37.244Z,20.80
2018-07-13T09:45:05.938Z,20.90
2018-07-13T09:47:35.528Z,20.80
2018-07-13T09:50:04.597Z,20.80
2018-07-13T09:52:33.727Z,20.90
2018-07-13T09:55:02.801Z,21.10
2018-07-13T09:57:32.359Z,21.10
2018-07-13T10:00:01.041Z,21.10
2018-07-13T10:02:29.686Z,21.00
2018-07-13T10:04:58.571Z,21.00
2018-07-13T10:07:27.581Z,21.00
2018-07-13T10:09:56.554Z,21.20
2018-07-13T10:12:25.475Z,21.30
2018-07-13T10:14:54.227Z,21.50
2018-07-13T10:17:23.003Z,21.60
2018-07-13T10:19:51.720Z,21.70
2018-07-13T10:22:26.621Z,21.70
2018-07-13T10:24:57.065Z,21.80
2018-07-13T10:29:56.834Z,21.80
2018-07-13T10:32:25.628Z,21.90
2018-07-13T10:34:54.827Z,21.80
2018-07-13T10:37:26.256Z,21.80
2018-07-13T10:39:54.861Z,22.00
2018-07-13T10:42:23.616Z,22.10
2018-07-13T10:44:52.278Z,21.70
2018-07-13T10:47:21.071Z,21.80
2018-07-13T10:49:49.851Z,21.90
2018-07-13T10:54:46.883Z,22.20
2018-07-13T10:57:15.695Z,22.20
2018-07-13T10:59:44.357Z,22.40
2018-07-13T11:02:13.097Z,22.40
2018-07-13T11:04:41.839Z,22.50
2018-07-13T11:07:10.432Z,22.50
2018-07-13T11:09:39.962Z,22.60
2018-07-13T11:12:08.854Z,22.80
2018-07-13T11:14:38.690Z,23.00
2018-07-13T11:17:07.525Z,23.10
2018-07-13T11:19:36.204Z,23.20
2018-07-13T11:22:04.979Z,23.40
2018-07-13T11:24:33.731Z,23.30
2018-07-13T11:27:02.464Z,23.20
2018-07-13T11:29:31.164Z,23.30
2018-07-13T11:31:59.858Z,23.30
2018-07-13T11:34:28.499Z,23.20
2018-07-13T11:36:57.162Z,23.30
2018-07-13T11:39:25.710Z,23.50
2018-07-13T11:41:54.368Z,23.60
2018-07-13T11:44:23.097Z,23.50
2018-07-13T11:46:51.960Z,23.30
2018-07-13T11:49:20.906Z,23.30
2018-07-13T11:51:49.536Z,23.30
2018-07-13T11:54:18.212Z,23.40
2018-07-13T11:56:46.840Z,23.40
2018-07-13T11:59:15.476Z,23.40
2018-07-13T12:01:44.213Z,23.50
2018-07-13T12:04:12.936Z,23.80
2018-07-13T12:06:41.651Z,23.80
2018-07-13T12:09:10.678Z,23.90
2018-07-13T12:11:39.383Z,23.90
2018-07-13T12:14:08.113Z,23.80
2018-07-13T12:16:36.813Z,23.80
2018-07-13T12:19:05.569Z,23.80
2018-07-13T12:21:34.192Z,23.90
2018-07-13T12:24:02.954Z,23.90
2018-07-13T12:26:31.744Z,24.10
2018-07-13T12:29:00.434Z,24.10
2018-07-13T12:31:29.139Z,24.30
2018-07-13T12:33:57.867Z,24.50
2018-07-13T12:36:26.866Z,24.50
2018-07-13T12:38:55.630Z,24.80
2018-07-13T12:41:24.536Z,24.90
2018-07-13T12:43:53.430Z,24.80
2018-07-13T12:46:22.147Z,24.60
2018-07-13T12:48:50.779Z,24.60
2018-07-13T12:51:19.668Z,24.60
2018-07-13T12:53:48.453Z,24.50
2018-07-13T12:56:17.633Z,24.60
2018-07-13T12:58:46.365Z,24.70
2018-07-13T13:01:15.070Z,24.70
2018-07-13T13:03:44.020Z,24.70
2018-07-13T13:06:12.757Z,24.80
2018-07-13T13:08:41.501Z,24.90
2018-07-13T13:11:10.315Z,24.90
2018-07-13T13:13:39.143Z,24.90
2018-07-13T13:16:07.804Z,24.90
2018-07-13T13:18:37.463Z,25.00
2018-07-13T13:21:06.178Z,25.10
2018-07-13T13:23:35.005Z,25.10
2018-07-13T13:26:03.721Z,25.10
2018-07-13T13:28:32.363Z,25.10
2018-07-13T13:31:01.073Z,25.00
2018-07-13T13:33:29.785Z,25.00
2018-07-13T13:35:58.540Z,25.10
2018-07-13T13:38:27.186Z,25.10
2018-07-13T13:40:55.928Z,25.20
2018-07-13T13:43:24.533Z,25.30
2018-07-13T13:45:53.188Z,25.40
2018-07-13T13:48:22.056Z,25.40
2018-07-13T13:50:50.874Z,25.40
2018-07-13T13:53:19.643Z,25.40
2018-07-13T13:55:48.394Z,25.20
2018-07-13T13:58:17.371Z,25.20
2018-07-13T14:03:14.967Z,25.10
2018-07-13T14:05:44.433Z,25.10
2018-07-13T14:08:13.176Z,25.10
2018-07-13T14:10:42.105Z,25.30
2018-07-13T14:13:10.772Z,25.40
2018-07-13T14:15:39.619Z,25.60
2018-07-13T14:18:08.448Z,25.80
2018-07-13T14:20:37.203Z,25.70
2018-07-13T14:23:06.698Z,25.50
2018-07-13T14:25:35.657Z,25.30
2018-07-13T14:28:05.958Z,25.20
2018-07-13T14:30:34.891Z,25.30
2018-07-13T14:33:04.118Z,25.30
2018-07-13T14:35:32.903Z,25.40
2018-07-13T14:38:01.772Z,25.40
2018-07-13T14:40:31.316Z,25.30
2018-07-13T14:43:00.039Z,25.30
2018-07-13T14:45:28.868Z,25.30
2018-07-13T14:47:57.590Z,25.30
2018-07-13T14:50:26.384Z,25.40
2018-07-13T14:52:55.179Z,25.60
2018-07-13T14:55:24.332Z,25.70
2018-07-13T15:00:22.251Z,25.80
2018-07-13T15:02:50.972Z,25.90
2018-07-13T15:05:19.653Z,25.90
2018-07-13T15:07:48.281Z,25.80
2018-07-13T15:10:17.169Z,25.70
2018-07-13T15:12:45.750Z,25.70
2018-07-13T15:15:14.530Z,25.70
2018-07-13T15:17:43.503Z,25.90
2018-07-13T15:20:12.339Z,25.90
2018-07-13T15:22:41.029Z,26.00
2018-07-13T15:25:09.803Z,26.10
2018-07-13T15:27:38.646Z,26.00
2018-07-13T15:30:07.440Z,26.10
2018-07-13T15:32:36.199Z,26.10
2018-07-13T15:35:04.974Z,26.10
2018-07-13T15:37:33.746Z,26.10
2018-07-13T15:40:02.633Z,26.00
2018-07-13T15:44:59.793Z,26.00
2018-07-13T15:47:28.903Z,26.00
2018-07-13T15:49:57.598Z,25.90
2018-07-13T15:52:26.303Z,25.70
2018-07-13T15:54:55.248Z,25.70
2018-07-13T15:59:52.420Z,25.80
2018-07-13T16:02:21.590Z,25.70
2018-07-13T16:04:50.450Z,25.70
2018-07-13T16:07:19.674Z,25.60
2018-07-13T16:09:48.392Z,25.60
2018-07-13T16:12:17.212Z,25.40
2018-07-13T16:14:46.105Z,25.20
2018-07-13T16:17:14.891Z,25.10
2018-07-13T16:19:44.027Z,25.10
2018-07-13T16:22:13.052Z,25.10
2018-07-13T16:24:48.225Z,25.30
2018-07-13T16:27:17.001Z,25.30
2018-07-13T16:29:45.692Z,25.50
2018-07-13T16:32:14.600Z,25.60
2018-07-13T16:34:43.421Z,25.70
2018-07-13T16:37:12.293Z,25.70
2018-07-13T16:39:40.973Z,25.80
2018-07-13T16:42:10.063Z,25.80
2018-07-13T16:44:38.866Z,25.80
2018-07-13T16:47:07.726Z,25.80
2018-07-13T16:49:36.436Z,25.70
2018-07-13T16:52:05.438Z,25.80
2018-07-13T16:54:34.602Z,25.90
2018-07-13T16:57:03.290Z,25.90
2018-07-13T16:59:32.070Z,25.90
2018-07-13T17:02:00.845Z,25.90
2018-07-13T17:06:58.612Z,25.90
2018-07-13T17:09:27.436Z,26.10
2018-07-13T17:11:56.533Z,27.10
2018-07-13T17:14:25.630Z,28.60
2018-07-13T17:16:54.398Z,30.10
2018-07-13T17:19:23.210Z,31.00
2018-07-13T17:21:52.010Z,31.40
2018-07-13T17:24:20.983Z,31.90
2018-07-13T17:26:49.769Z,32.90
2018-07-13T17:29:18.494Z,33.10
2018-07-13T17:31:47.274Z,33.40
2018-07-13T17:34:16.165Z,33.30
2018-07-13T17:36:45.075Z,33.50
2018-07-13T17:39:13.787Z,33.80
2018-07-13T17:41:42.451Z,33.40
2018-07-13T17:44:11.239Z,32.80
2018-07-13T17:46:39.969Z,32.80
2018-07-13T17:49:08.744Z,32.00
2018-07-13T17:51:37.445Z,31.10
2018-07-13T17:54:06.108Z,31.20
2018-07-13T17:56:34.792Z,31.40
2018-07-13T17:59:03.464Z,31.70
2018-07-13T18:01:32.088Z,31.70
2018-07-13T18:04:00.875Z,31.70
2018-07-13T18:06:29.567Z,31.50
2018-07-13T18:08:58.305Z,31.00
2018-07-13T18:11:27.222Z,29.90
2018-07-13T18:16:24.505Z,28.20
2018-07-13T18:18:53.196Z,27.50
2018-07-13T18:21:22.614Z,27.00
2018-07-13T18:23:51.296Z,26.40
2018-07-13T18:26:20.715Z,26.10
2018-07-13T18:28:49.523Z,25.80
2018-07-13T18:31:18.176Z,25.60
2018-07-13T18:33:47.769Z,25.30
2018-07-13T18:36:16.604Z,25.20
2018-07-13T18:38:45.598Z,25.10
2018-07-13T18:41:15.326Z,25.00
2018-07-13T18:43:44.606Z,24.90
2018-07-13T18:46:13.887Z,24.80
2018-07-13T18:48:42.503Z,24.70
2018-07-13T18:51:11.266Z,24.70
2018-07-13T18:53:39.972Z,24.60
2018-07-13T18:56:08.740Z,24.50
2018-07-13T18:58:37.568Z,24.40
2018-07-13T19:01:06.632Z,24.40
2018-07-13T19:03:35.401Z,24.30
2018-07-13T19:06:04.138Z,24.10
2018-07-13T19:08:32.784Z,24.10
2018-07-13T19:11:01.427Z,24.10
2018-07-13T19:13:31.717Z,24.10
2018-07-13T19:16:00.334Z,24.00
2018-07-13T19:18:29.007Z,24.00
2018-07-13T19:20:57.673Z,24.00
2018-07-13T19:23:26.696Z,23.90
2018-07-13T19:25:55.427Z,23.80
2018-07-13T19:28:24.019Z,23.70
2018-07-13T19:30:52.855Z,23.70
2018-07-13T19:33:21.559Z,23.60
2018-07-13T19:35:50.204Z,23.50
2018-07-13T19:38:18.932Z,23.40
2018-07-13T19:40:47.686Z,23.30
2018-07-13T19:43:16.355Z,23.20
2018-07-13T19:45:45.126Z,23.20
2018-07-13T19:48:14.017Z,23.10
2018-07-13T19:50:42.724Z,23.00
2018-07-13T19:53:11.398Z,22.90
2018-07-13T19:55:40.064Z,22.80
2018-07-13T19:58:08.879Z,22.80
2018-07-13T20:00:37.822Z,22.60
2018-07-13T20:03:06.738Z,22.50
2018-07-13T20:05:35.354Z,22.40
2018-07-13T20:08:04.101Z,22.40
2018-07-13T20:10:33.534Z,22.30
2018-07-13T20:13:02.205Z,22.20
2018-07-13T20:15:32.026Z,22.20
2018-07-13T20:18:00.707Z,22.00
2018-07-13T20:20:29.407Z,22.00
2018-07-13T20:22:58.114Z,22.00
2018-07-13T20:25:26.736Z,21.90
2018-07-13T20:30:23.890Z,21.70
2018-07-13T20:32:52.518Z,21.60
2018-07-13T20:35:21.170Z,21.60
2018-07-13T20:37:49.839Z,21.50
2018-07-13T20:40:18.550Z,21.40
2018-07-13T20:42:47.248Z,21.30
2018-07-13T20:45:15.982Z,21.30
2018-07-13T20:47:44.700Z,21.30
2018-07-13T20:50:13.415Z,21.30
2018-07-13T20:52:42.184Z,21.30
2018-07-13T20:55:10.863Z,21.20
2018-07-13T20:57:39.506Z,21.10
2018-07-13T21:00:08.223Z,21.00
2018-07-13T21:02:38.220Z,20.90
2018-07-13T21:05:06.915Z,20.80
2018-07-13T21:07:37.095Z,20.80
2018-07-13T21:10:05.888Z,20.70
2018-07-13T21:15:02.803Z,20.60
2018-07-13T21:17:31.491Z,20.60
2018-07-13T21:20:00.100Z,20.50
2018-07-13T21:22:28.846Z,20.50
2018-07-13T21:24:57.770Z,20.40
2018-07-13T21:27:26.463Z,20.40
2018-07-13T21:29:55.198Z,20.30
2018-07-13T21:32:23.949Z,20.20
2018-07-13T21:34:52.591Z,20.20
2018-07-13T21:37:21.313Z,20.10
2018-07-13T21:39:49.877Z,20.10
2018-07-13T21:42:18.566Z,20.10
2018-07-13T21:44:47.164Z,20.00
2018-07-13T21:47:15.931Z,19.90
2018-07-13T21:49:45.697Z,19.90
2018-07-13T21:52:14.889Z,19.90
2018-07-13T21:54:43.615Z,19.80
2018-07-13T21:57:12.784Z,19.80
2018-07-13T21:59:41.560Z,19.60
2018-07-13T22:02:10.305Z,19.60
2018-07-13T22:04:39.073Z,19.50
2018-07-13T22:07:07.779Z,19.30
2018-07-13T22:09:36.892Z,19.30
2018-07-13T22:12:07.831Z,19.30
2018-07-13T22:14:36.582Z,19.10
2018-07-13T22:17:05.555Z,19.10
2018-07-13T22:19:34.222Z,19.10
2018-07-13T22:22:03.039Z,19.10
2018-07-13T22:24:31.878Z,19.00
2018-07-13T22:27:00.487Z,18.90
2018-07-13T22:29:29.089Z,18.90
2018-07-13T22:31:57.799Z,18.80
2018-07-13T22:34:26.725Z,18.80
2018-07-13T22:36:55.509Z,18.70
2018-07-13T22:39:24.096Z,18.70
2018-07-13T22:41:53.659Z,18.70
2018-07-13T22:44:22.272Z,18.60
2018-07-13T22:46:50.937Z,18.60
2018-07-13T22:49:19.517Z,18.60
2018-07-13T22:51:48.173Z,18.60
2018-07-13T22:54:17.005Z,18.50
2018-07-13T22:56:45.771Z,18.50
2018-07-13T22:59:14.485Z,18.50
2018-07-13T23:01:43.118Z,18.40
2018-07-13T23:04:11.812Z,18.40
2018-07-13T23:06:40.501Z,18.30
2018-07-13T23:09:09.182Z,18.20
2018-07-13T23:11:37.908Z,18.20
2018-07-13T23:14:06.599Z,18.10
2018-07-13T23:16:35.364Z,18.10
2018-07-13T23:19:04.121Z,18.10
2018-07-13T23:21:32.807Z,18.00
2018-07-13T23:24:01.504Z,18.00
2018-07-13T23:26:30.187Z,17.90
2018-07-13T23:28:58.892Z,17.90
2018-07-13T23:31:27.537Z,17.90
2018-07-13T23:33:56.192Z,17.90
2018-07-13T23:36:24.943Z,17.80
2018-07-13T23:38:54.719Z,17.80
2018-07-13T23:41:23.384Z,17.90
2018-07-13T23:43:52.170Z,17.90
2018-07-13T23:46:20.913Z,17.90
2018-07-13T23:48:49.595Z,17.80
2018-07-13T23:51:18.430Z,17.80
2018-07-13T23:53:47.035Z,17.80
2018-07-13T23:58:43.996Z,17.70
